sensor_id;sensor_type;location;lat;lon;timestamp;temperature;humidity
42201;DHT22;27869;51.442;7.540;2022-11-15T00:01:33;9.80;99.90
42201;DHT22;27869;51.442;7.540;2022-11-15T00:04:02;9.80;99.90
42201;DHT22;27869;51.442;7.540;2022-11-15T00:06:31;9.80;99.90
42201;DHT22;27869;51.442;7.540;2022-11-15T00:09:00;9.80;99.90
42201;DHT22;27869;51.442;7.540;2022-11-15T00:11:28;9.90;99.90
42201;DHT22;27869;51.442;7.540;2022-11-15T00:13:55;9.90;99.90
42201;DHT22;27869;51.442;7.540;2022-11-15T00:16:23;9.90;99.90
42201;DHT22;27869;51.442;7.540;2022-11-15T00:18:50;10.00;99.90
42201;DHT22;27869;51.442;7.540;2022-11-15T00:21:18;10.00;99.90
42201;DHT22;27869;51.442;7.540;2022-11-15T00:23:46;10.00;99.90
42201;DHT22;27869;51.442;7.540;2022-11-15T00:26:14;10.10;99.90
42201;DHT22;27869;51.442;7.540;2022-11-15T00:28:42;10.10;99.90
42201;DHT22;27869;51.442;7.540;2022-11-15T00:31:11;10.10;99.90
42201;DHT22;27869;51.442;7.540;2022-11-15T00:33:38;10.20;99.90
42201;DHT22;27869;51.442;7.540;2022-11-15T00:36:07;10.20;99.90
42201;DHT22;27869;51.442;7.540;2022-11-15T00:38:37;10.30;99.90
42201;DHT22;27869;51.442;7.540;2022-11-15T00:41:06;10.30;99.90
42201;DHT22;27869;51.442;7.540;2022-11-15T00:43:33;10.30;99.90
42201;DHT22;27869;51.442;7.540;2022-11-15T00:46:00;10.40;99.90
42201;DHT22;27869;51.442;7.540;2022-11-15T00:48:28;10.40;99.90
42201;DHT22;27869;51.442;7.540;2022-11-15T00:50:55;10.40;99.90
42201;DHT22;27869;51.442;7.540;2022-11-15T00:53:22;10.40;99.90
42201;DHT22;27869;51.442;7.540;2022-11-15T00:55:49;10.50;99.90
42201;DHT22;27869;51.442;7.540;2022-11-15T00:58:17;10.50;99.90
42201;DHT22;27869;51.442;7.540;2022-11-15T01:00:44;10.60;99.90
42201;DHT22;27869;51.442;7.540;2022-11-15T01:03:11;10.60;99.90
42201;DHT22;27869;51.442;7.540;2022-11-15T01:05:38;10.70;99.90
42201;DHT22;27869;51.442;7.540;2022-11-15T01:08:05;10.70;99.90
42201;DHT22;27869;51.442;7.540;2022-11-15T01:10:32;10.80;99.90
42201;DHT22;27869;51.442;7.540;2022-11-15T01:12:59;10.80;99.90
42201;DHT22;27869;51.442;7.540;2022-11-15T01:15:27;10.90;99.90
42201;DHT22;27869;51.442;7.540;2022-11-15T01:17:54;10.90;99.90
42201;DHT22;27869;51.442;7.540;2022-11-15T01:20:21;10.90;99.90
42201;DHT22;27869;51.442;7.540;2022-11-15T01:22:48;11.00;99.90
42201;DHT22;27869;51.442;7.540;2022-11-15T01:25:15;11.00;99.90
42201;DHT22;27869;51.442;7.540;2022-11-15T01:27:42;11.00;99.90
42201;DHT22;27869;51.442;7.540;2022-11-15T01:30:09;11.10;99.90
42201;DHT22;27869;51.442;7.540;2022-11-15T01:32:37;11.10;99.90
42201;DHT22;27869;51.442;7.540;2022-11-15T01:35:05;11.10;99.90
42201;DHT22;27869;51.442;7.540;2022-11-15T01:37:31;11.10;99.90
42201;DHT22;27869;51.442;7.540;2022-11-15T01:39:58;11.20;99.90
42201;DHT22;27869;51.442;7.540;2022-11-15T01:42:25;11.20;99.90
42201;DHT22;27869;51.442;7.540;2022-11-15T01:44:52;11.20;99.90
42201;DHT22;27869;51.442;7.540;2022-11-15T01:47:23;11.20;99.90
42201;DHT22;27869;51.442;7.540;2022-11-15T01:49:56;11.30;99.90
42201;DHT22;27869;51.442;7.540;2022-11-15T01:52:26;11.30;99.90
42201;DHT22;27869;51.442;7.540;2022-11-15T01:54:58;11.30;99.90
42201;DHT22;27869;51.442;7.540;2022-11-15T01:57:28;11.30;99.90
42201;DHT22;27869;51.442;7.540;2022-11-15T01:59:56;11.40;99.90
42201;DHT22;27869;51.442;7.540;2022-11-15T02:02:23;11.40;99.90
42201;DHT22;27869;51.442;7.540;2022-11-15T02:04:50;11.40;99.90
42201;DHT22;27869;51.442;7.540;2022-11-15T02:07:20;11.40;99.90
42201;DHT22;27869;51.442;7.540;2022-11-15T02:09:48;11.40;99.90
42201;DHT22;27869;51.442;7.540;2022-11-15T02:12:19;11.40;99.90
42201;DHT22;27869;51.442;7.540;2022-11-15T02:14:49;11.40;99.90
42201;DHT22;27869;51.442;7.540;2022-11-15T02:17:37;11.40;99.90
42201;DHT22;27869;51.442;7.540;2022-11-15T02:20:20;11.40;99.90
42201;DHT22;27869;51.442;7.540;2022-11-15T02:23:10;11.40;99.90
42201;DHT22;27869;51.442;7.540;2022-11-15T02:25:48;11.40;99.90
42201;DHT22;27869;51.442;7.540;2022-11-15T02:28:40;11.40;99.90
42201;DHT22;27869;51.442;7.540;2022-11-15T02:31:14;11.50;99.90
42201;DHT22;27869;51.442;7.540;2022-11-15T02:33:53;11.50;99.90
42201;DHT22;27869;51.442;7.540;2022-11-15T02:36:33;11.50;99.90
42201;DHT22;27869;51.442;7.540;2022-11-15T02:39:06;11.50;99.90
42201;DHT22;27869;51.442;7.540;2022-11-15T02:41:38;11.50;99.90
42201;DHT22;27869;51.442;7.540;2022-11-15T02:44:10;11.50;99.90
42201;DHT22;27869;51.442;7.540;2022-11-15T02:46:43;11.50;99.90
42201;DHT22;27869;51.442;7.540;2022-11-15T02:49:32;11.50;99.90
42201;DHT22;27869;51.442;7.540;2022-11-15T02:52:00;11.50;99.90
42201;DHT22;27869;51.442;7.540;2022-11-15T02:54:30;11.50;99.90
42201;DHT22;27869;51.442;7.540;2022-11-15T02:57:01;11.50;99.90
42201;DHT22;27869;51.442;7.540;2022-11-15T02:59:40;11.50;99.90
42201;DHT22;27869;51.442;7.540;2022-11-15T03:02:19;11.50;99.90
42201;DHT22;27869;51.442;7.540;2022-11-15T03:04:53;11.50;99.90
42201;DHT22;27869;51.442;7.540;2022-11-15T03:07:27;11.50;99.90
42201;DHT22;27869;51.442;7.540;2022-11-15T03:10:03;11.50;99.90
42201;DHT22;27869;51.442;7.540;2022-11-15T03:12:36;11.60;99.90
42201;DHT22;27869;51.442;7.540;2022-11-15T03:15:07;11.50;99.90
42201;DHT22;27869;51.442;7.540;2022-11-15T03:17:40;11.50;99.90
42201;DHT22;27869;51.442;7.540;2022-11-15T03:20:10;11.60;99.90
42201;DHT22;27869;51.442;7.540;2022-11-15T03:22:42;11.60;99.90
42201;DHT22;27869;51.442;7.540;2022-11-15T03:25:16;11.60;99.90
42201;DHT22;27869;51.442;7.540;2022-11-15T03:27:48;11.60;99.90
42201;DHT22;27869;51.442;7.540;2022-11-15T03:30:17;11.60;99.90
42201;DHT22;27869;51.442;7.540;2022-11-15T03:32:48;11.70;99.90
42201;DHT22;27869;51.442;7.540;2022-11-15T03:35:18;11.70;99.90
42201;DHT22;27869;51.442;7.540;2022-11-15T03:37:53;11.70;99.90
42201;DHT22;27869;51.442;7.540;2022-11-15T03:40:25;11.80;99.90
42201;DHT22;27869;51.442;7.540;2022-11-15T03:43:00;11.70;99.90
42201;DHT22;27869;51.442;7.540;2022-11-15T03:45:32;11.80;99.90
42201;DHT22;27869;51.442;7.540;2022-11-15T03:48:07;11.80;99.90
42201;DHT22;27869;51.442;7.540;2022-11-15T03:50:37;11.80;99.90
42201;DHT22;27869;51.442;7.540;2022-11-15T03:53:04;11.80;99.90
42201;DHT22;27869;51.442;7.540;2022-11-15T03:55:32;11.80;99.90
42201;DHT22;27869;51.442;7.540;2022-11-15T03:58:01;11.80;99.90
42201;DHT22;27869;51.442;7.540;2022-11-15T04:00:28;11.80;99.90
42201;DHT22;27869;51.442;7.540;2022-11-15T04:02:55;11.90;99.90
42201;DHT22;27869;51.442;7.540;2022-11-15T04:05:23;11.90;99.90
42201;DHT22;27869;51.442;7.540;2022-11-15T04:07:50;11.90;99.90
42201;DHT22;27869;51.442;7.540;2022-11-15T04:10:17;11.90;99.90
42201;DHT22;27869;51.442;7.540;2022-11-15T04:12:45;11.90;99.90
42201;DHT22;27869;51.442;7.540;2022-11-15T04:15:15;12.00;99.90
42201;DHT22;27869;51.442;7.540;2022-11-15T04:17:44;12.00;99.90
42201;DHT22;27869;51.442;7.540;2022-11-15T04:20:14;12.00;99.90
42201;DHT22;27869;51.442;7.540;2022-11-15T04:23:02;12.00;99.90
42201;DHT22;27869;51.442;7.540;2022-11-15T04:25:49;12.00;99.90
42201;DHT22;27869;51.442;7.540;2022-11-15T04:28:17;12.00;99.90
42201;DHT22;27869;51.442;7.540;2022-11-15T04:30:44;12.00;99.90
42201;DHT22;27869;51.442;7.540;2022-11-15T04:33:11;12.00;99.90
42201;DHT22;27869;51.442;7.540;2022-11-15T04:35:38;12.10;99.90
42201;DHT22;27869;51.442;7.540;2022-11-15T04:38:08;12.10;99.90
42201;DHT22;27869;51.442;7.540;2022-11-15T04:40:35;12.10;99.90
42201;DHT22;27869;51.442;7.540;2022-11-15T04:43:02;12.10;99.90
42201;DHT22;27869;51.442;7.540;2022-11-15T04:45:29;12.10;99.90
42201;DHT22;27869;51.442;7.540;2022-11-15T04:47:56;12.10;99.90
42201;DHT22;27869;51.442;7.540;2022-11-15T04:50:23;12.20;99.90
42201;DHT22;27869;51.442;7.540;2022-11-15T04:52:51;12.20;99.90
42201;DHT22;27869;51.442;7.540;2022-11-15T04:55:20;12.20;99.90
42201;DHT22;27869;51.442;7.540;2022-11-15T04:57:47;12.20;99.90
42201;DHT22;27869;51.442;7.540;2022-11-15T05:00:16;12.20;99.90
42201;DHT22;27869;51.442;7.540;2022-11-15T05:02:43;12.20;99.90
42201;DHT22;27869;51.442;7.540;2022-11-15T05:05:27;12.20;99.90
42201;DHT22;27869;51.442;7.540;2022-11-15T05:07:54;12.30;99.90
42201;DHT22;27869;51.442;7.540;2022-11-15T05:10:22;12.30;99.90
42201;DHT22;27869;51.442;7.540;2022-11-15T05:12:49;12.30;99.90
42201;DHT22;27869;51.442;7.540;2022-11-15T05:15:16;12.30;99.90
42201;DHT22;27869;51.442;7.540;2022-11-15T05:17:43;12.30;99.90
42201;DHT22;27869;51.442;7.540;2022-11-15T05:20:10;12.30;99.90
42201;DHT22;27869;51.442;7.540;2022-11-15T05:22:37;12.30;99.90
42201;DHT22;27869;51.442;7.540;2022-11-15T05:25:05;12.30;99.90
42201;DHT22;27869;51.442;7.540;2022-11-15T05:27:34;12.30;99.90
42201;DHT22;27869;51.442;7.540;2022-11-15T05:30:01;12.30;99.90
42201;DHT22;27869;51.442;7.540;2022-11-15T05:32:28;12.30;99.90
42201;DHT22;27869;51.442;7.540;2022-11-15T05:34:55;12.30;99.90
42201;DHT22;27869;51.442;7.540;2022-11-15T05:37:22;12.30;99.90
42201;DHT22;27869;51.442;7.540;2022-11-15T05:39:49;12.30;99.90
42201;DHT22;27869;51.442;7.540;2022-11-15T05:42:16;12.30;99.90
42201;DHT22;27869;51.442;7.540;2022-11-15T05:44:46;12.40;99.90
42201;DHT22;27869;51.442;7.540;2022-11-15T05:47:19;12.40;99.90
42201;DHT22;27869;51.442;7.540;2022-11-15T05:49:48;12.40;99.90
42201;DHT22;27869;51.442;7.540;2022-11-15T05:52:20;12.40;99.90
42201;DHT22;27869;51.442;7.540;2022-11-15T05:54:48;12.40;99.90
42201;DHT22;27869;51.442;7.540;2022-11-15T05:57:16;12.40;99.90
42201;DHT22;27869;51.442;7.540;2022-11-15T05:59:44;12.40;99.90
42201;DHT22;27869;51.442;7.540;2022-11-15T06:02:14;12.40;99.90
42201;DHT22;27869;51.442;7.540;2022-11-15T06:04:41;12.40;99.90
42201;DHT22;27869;51.442;7.540;2022-11-15T06:07:08;12.40;99.90
42201;DHT22;27869;51.442;7.540;2022-11-15T06:09:35;12.40;99.90
42201;DHT22;27869;51.442;7.540;2022-11-15T06:12:02;12.40;99.90
42201;DHT22;27869;51.442;7.540;2022-11-15T06:14:29;12.40;99.90
42201;DHT22;27869;51.442;7.540;2022-11-15T06:16:57;12.40;99.90
42201;DHT22;27869;51.442;7.540;2022-11-15T06:19:24;12.40;99.90
42201;DHT22;27869;51.442;7.540;2022-11-15T06:21:51;12.40;99.90
42201;DHT22;27869;51.442;7.540;2022-11-15T06:24:18;12.40;99.90
42201;DHT22;27869;51.442;7.540;2022-11-15T06:26:45;12.40;99.90
42201;DHT22;27869;51.442;7.540;2022-11-15T06:29:12;12.40;99.90
42201;DHT22;27869;51.442;7.540;2022-11-15T06:31:38;12.40;99.90
42201;DHT22;27869;51.442;7.540;2022-11-15T06:34:07;12.40;99.90
42201;DHT22;27869;51.442;7.540;2022-11-15T06:36:34;12.40;99.90
42201;DHT22;27869;51.442;7.540;2022-11-15T06:39:01;12.40;99.90
42201;DHT22;27869;51.442;7.540;2022-11-15T06:41:28;12.40;99.90
42201;DHT22;27869;51.442;7.540;2022-11-15T06:43:56;12.40;99.90
42201;DHT22;27869;51.442;7.540;2022-11-15T06:46:23;12.40;99.90
42201;DHT22;27869;51.442;7.540;2022-11-15T06:48:50;12.40;99.90
42201;DHT22;27869;51.442;7.540;2022-11-15T06:51:19;12.40;99.90
42201;DHT22;27869;51.442;7.540;2022-11-15T06:53:46;12.40;99.90
42201;DHT22;27869;51.442;7.540;2022-11-15T06:56:13;12.40;99.90
42201;DHT22;27869;51.442;7.540;2022-11-15T06:58:39;12.50;99.90
42201;DHT22;27869;51.442;7.540;2022-11-15T07:01:08;12.50;99.90
42201;DHT22;27869;51.442;7.540;2022-11-15T07:03:36;12.50;99.90
42201;DHT22;27869;51.442;7.540;2022-11-15T07:06:04;12.50;99.90
42201;DHT22;27869;51.442;7.540;2022-11-15T07:08:32;12.50;99.90
42201;DHT22;27869;51.442;7.540;2022-11-15T07:11:00;12.50;99.90
42201;DHT22;27869;51.442;7.540;2022-11-15T07:13:29;12.50;99.90
42201;DHT22;27869;51.442;7.540;2022-11-15T07:15:58;12.50;99.90
42201;DHT22;27869;51.442;7.540;2022-11-15T07:18:27;12.50;99.90
42201;DHT22;27869;51.442;7.540;2022-11-15T07:20:55;12.50;99.90
42201;DHT22;27869;51.442;7.540;2022-11-15T07:23:22;12.50;99.90
42201;DHT22;27869;51.442;7.540;2022-11-15T07:25:50;12.50;99.90
42201;DHT22;27869;51.442;7.540;2022-11-15T07:28:17;12.60;99.90
42201;DHT22;27869;51.442;7.540;2022-11-15T07:30:44;12.50;99.90
42201;DHT22;27869;51.442;7.540;2022-11-15T07:33:11;12.50;99.90
42201;DHT22;27869;51.442;7.540;2022-11-15T07:35:38;12.50;99.90
42201;DHT22;27869;51.442;7.540;2022-11-15T07:38:04;12.50;99.90
42201;DHT22;27869;51.442;7.540;2022-11-15T07:40:31;12.50;99.90
42201;DHT22;27869;51.442;7.540;2022-11-15T07:43:00;12.50;99.90
42201;DHT22;27869;51.442;7.540;2022-11-15T07:45:27;12.50;99.90
42201;DHT22;27869;51.442;7.540;2022-11-15T07:47:54;12.50;99.90
42201;DHT22;27869;51.442;7.540;2022-11-15T07:50:22;12.50;99.90
42201;DHT22;27869;51.442;7.540;2022-11-15T07:52:53;12.50;99.90
42201;DHT22;27869;51.442;7.540;2022-11-15T07:55:21;12.50;99.90
42201;DHT22;27869;51.442;7.540;2022-11-15T07:57:48;12.50;99.90
42201;DHT22;27869;51.442;7.540;2022-11-15T08:00:17;12.50;99.90
42201;DHT22;27869;51.442;7.540;2022-11-15T08:02:44;12.50;99.90
42201;DHT22;27869;51.442;7.540;2022-11-15T08:05:11;12.50;99.90
42201;DHT22;27869;51.442;7.540;2022-11-15T08:07:38;12.50;99.90
42201;DHT22;27869;51.442;7.540;2022-11-15T08:10:06;12.50;99.90
42201;DHT22;27869;51.442;7.540;2022-11-15T08:12:33;12.50;99.90
42201;DHT22;27869;51.442;7.540;2022-11-15T08:15:00;12.50;99.90
42201;DHT22;27869;51.442;7.540;2022-11-15T08:17:29;12.50;99.90
42201;DHT22;27869;51.442;7.540;2022-11-15T08:19:58;12.50;99.90
42201;DHT22;27869;51.442;7.540;2022-11-15T08:22:25;12.50;99.90
42201;DHT22;27869;51.442;7.540;2022-11-15T08:24:52;12.50;99.90
42201;DHT22;27869;51.442;7.540;2022-11-15T08:27:19;12.50;99.90
42201;DHT22;27869;51.442;7.540;2022-11-15T08:29:48;12.50;99.90
42201;DHT22;27869;51.442;7.540;2022-11-15T08:32:15;12.60;99.90
42201;DHT22;27869;51.442;7.540;2022-11-15T08:34:44;12.60;99.90
42201;DHT22;27869;51.442;7.540;2022-11-15T08:37:11;12.60;99.90
42201;DHT22;27869;51.442;7.540;2022-11-15T08:39:38;12.60;99.90
42201;DHT22;27869;51.442;7.540;2022-11-15T08:42:05;12.70;99.90
42201;DHT22;27869;51.442;7.540;2022-11-15T08:44:32;12.70;99.90
42201;DHT22;27869;51.442;7.540;2022-11-15T08:46:59;12.70;99.90
42201;DHT22;27869;51.442;7.540;2022-11-15T08:49:26;12.80;99.90
42201;DHT22;27869;51.442;7.540;2022-11-15T08:51:54;12.80;99.90
42201;DHT22;27869;51.442;7.540;2022-11-15T08:54:21;12.80;99.90
42201;DHT22;27869;51.442;7.540;2022-11-15T08:56:48;12.80;99.90
42201;DHT22;27869;51.442;7.540;2022-11-15T08:59:14;12.80;99.90
42201;DHT22;27869;51.442;7.540;2022-11-15T09:01:41;12.90;99.90
42201;DHT22;27869;51.442;7.540;2022-11-15T09:04:08;12.90;99.90
42201;DHT22;27869;51.442;7.540;2022-11-15T09:06:35;12.90;99.90
42201;DHT22;27869;51.442;7.540;2022-11-15T09:09:04;12.90;99.90
42201;DHT22;27869;51.442;7.540;2022-11-15T09:11:31;13.00;99.90
42201;DHT22;27869;51.442;7.540;2022-11-15T09:13:58;13.00;99.90
42201;DHT22;27869;51.442;7.540;2022-11-15T09:16:24;13.00;99.90
42201;DHT22;27869;51.442;7.540;2022-11-15T09:18:52;13.10;99.90
42201;DHT22;27869;51.442;7.540;2022-11-15T09:21:19;13.10;99.90
42201;DHT22;27869;51.442;7.540;2022-11-15T09:23:46;13.10;99.90
42201;DHT22;27869;51.442;7.540;2022-11-15T09:26:14;13.10;99.90
42201;DHT22;27869;51.442;7.540;2022-11-15T09:28:41;13.20;99.90
42201;DHT22;27869;51.442;7.540;2022-11-15T09:31:09;13.20;99.90
42201;DHT22;27869;51.442;7.540;2022-11-15T09:33:36;13.20;99.90
42201;DHT22;27869;51.442;7.540;2022-11-15T09:36:06;13.20;99.90
42201;DHT22;27869;51.442;7.540;2022-11-15T09:38:34;13.20;99.90
42201;DHT22;27869;51.442;7.540;2022-11-15T09:41:45;13.20;99.90
42201;DHT22;27869;51.442;7.540;2022-11-15T09:44:34;13.30;99.90
42201;DHT22;27869;51.442;7.540;2022-11-15T09:47:19;13.30;99.90
42201;DHT22;27869;51.442;7.540;2022-11-15T09:49:51;13.30;99.90
42201;DHT22;27869;51.442;7.540;2022-11-15T09:52:19;13.30;99.90
42201;DHT22;27869;51.442;7.540;2022-11-15T09:54:49;13.40;99.90
42201;DHT22;27869;51.442;7.540;2022-11-15T09:57:21;13.40;99.90
42201;DHT22;27869;51.442;7.540;2022-11-15T09:59:58;13.40;99.90
42201;DHT22;27869;51.442;7.540;2022-11-15T10:02:42;13.40;99.90
42201;DHT22;27869;51.442;7.540;2022-11-15T10:05:14;13.40;99.90
42201;DHT22;27869;51.442;7.540;2022-11-15T10:07:46;13.40;99.90
42201;DHT22;27869;51.442;7.540;2022-11-15T10:10:24;13.50;99.90
42201;DHT22;27869;51.442;7.540;2022-11-15T10:12:55;13.40;99.90
42201;DHT22;27869;51.442;7.540;2022-11-15T10:15:22;13.50;99.90
42201;DHT22;27869;51.442;7.540;2022-11-15T10:18:04;13.50;99.90
42201;DHT22;27869;51.442;7.540;2022-11-15T10:20:37;13.60;99.90
42201;DHT22;27869;51.442;7.540;2022-11-15T10:23:11;13.60;99.90
42201;DHT22;27869;51.442;7.540;2022-11-15T10:25:39;13.60;99.90
42201;DHT22;27869;51.442;7.540;2022-11-15T10:28:14;13.70;99.90
42201;DHT22;27869;51.442;7.540;2022-11-15T10:30:43;13.70;99.90
42201;DHT22;27869;51.442;7.540;2022-11-15T10:36:18;13.70;99.90
42201;DHT22;27869;51.442;7.540;2022-11-15T10:38:54;13.70;99.90
42201;DHT22;27869;51.442;7.540;2022-11-15T10:41:22;13.70;99.90
42201;DHT22;27869;51.442;7.540;2022-11-15T10:44:11;13.70;99.90
42201;DHT22;27869;51.442;7.540;2022-11-15T10:46:40;13.70;99.90
42201;DHT22;27869;51.442;7.540;2022-11-15T10:49:13;13.70;99.90
42201;DHT22;27869;51.442;7.540;2022-11-15T10:51:43;13.70;99.90
42201;DHT22;27869;51.442;7.540;2022-11-15T10:54:12;13.80;99.90
42201;DHT22;27869;51.442;7.540;2022-11-15T10:56:41;13.80;99.90
42201;DHT22;27869;51.442;7.540;2022-11-15T10:59:17;13.80;99.90
42201;DHT22;27869;51.442;7.540;2022-11-15T11:01:48;13.80;99.90
42201;DHT22;27869;51.442;7.540;2022-11-15T11:04:15;13.80;99.90
42201;DHT22;27869;51.442;7.540;2022-11-15T11:06:50;13.80;99.90
42201;DHT22;27869;51.442;7.540;2022-11-15T11:09:30;13.80;99.90
42201;DHT22;27869;51.442;7.540;2022-11-15T11:11:57;13.80;99.90
42201;DHT22;27869;51.442;7.540;2022-11-15T11:14:27;13.80;99.90
42201;DHT22;27869;51.442;7.540;2022-11-15T11:17:03;13.80;99.90
42201;DHT22;27869;51.442;7.540;2022-11-15T11:19:56;13.80;99.90
42201;DHT22;27869;51.442;7.540;2022-11-15T11:22:32;13.80;99.90
42201;DHT22;27869;51.442;7.540;2022-11-15T11:25:10;13.90;99.90
42201;DHT22;27869;51.442;7.540;2022-11-15T11:27:45;13.90;99.90
42201;DHT22;27869;51.442;7.540;2022-11-15T11:30:19;13.90;99.90
42201;DHT22;27869;51.442;7.540;2022-11-15T11:33:09;13.90;99.90
42201;DHT22;27869;51.442;7.540;2022-11-15T11:35:46;14.00;99.90
42201;DHT22;27869;51.442;7.540;2022-11-15T11:38:31;14.00;99.90
42201;DHT22;27869;51.442;7.540;2022-11-15T11:41:06;14.00;99.90
42201;DHT22;27869;51.442;7.540;2022-11-15T11:43:41;14.00;99.90
42201;DHT22;27869;51.442;7.540;2022-11-15T11:46:25;14.10;99.90
42201;DHT22;27869;51.442;7.540;2022-11-15T11:48:58;14.10;99.90
42201;DHT22;27869;51.442;7.540;2022-11-15T11:51:32;14.10;99.90
42201;DHT22;27869;51.442;7.540;2022-11-15T11:54:06;14.20;99.90
42201;DHT22;27869;51.442;7.540;2022-11-15T11:56:39;14.10;99.90
42201;DHT22;27869;51.442;7.540;2022-11-15T11:59:12;14.20;99.90
42201;DHT22;27869;51.442;7.540;2022-11-15T12:01:42;14.20;99.90
42201;DHT22;27869;51.442;7.540;2022-11-15T12:04:13;14.30;99.90
42201;DHT22;27869;51.442;7.540;2022-11-15T12:06:45;14.30;99.90
42201;DHT22;27869;51.442;7.540;2022-11-15T12:09:16;14.30;99.90
42201;DHT22;27869;51.442;7.540;2022-11-15T12:11:50;14.30;99.90
42201;DHT22;27869;51.442;7.540;2022-11-15T12:14:27;14.30;99.90
42201;DHT22;27869;51.442;7.540;2022-11-15T12:16:57;14.30;99.90
42201;DHT22;27869;51.442;7.540;2022-11-15T12:19:24;14.40;99.90
42201;DHT22;27869;51.442;7.540;2022-11-15T12:21:55;14.40;99.90
42201;DHT22;27869;51.442;7.540;2022-11-15T12:24:26;14.40;99.90
42201;DHT22;27869;51.442;7.540;2022-11-15T12:27:01;14.40;99.90
42201;DHT22;27869;51.442;7.540;2022-11-15T12:29:33;14.40;99.90
42201;DHT22;27869;51.442;7.540;2022-11-15T12:32:03;14.40;99.90
42201;DHT22;27869;51.442;7.540;2022-11-15T12:34:43;14.40;99.90
42201;DHT22;27869;51.442;7.540;2022-11-15T12:40:34;14.30;99.90
42201;DHT22;27869;51.442;7.540;2022-11-15T12:46:18;14.40;99.90
42201;DHT22;27869;51.442;7.540;2022-11-15T12:48:51;14.40;99.90
42201;DHT22;27869;51.442;7.540;2022-11-15T12:51:21;14.30;99.90
42201;DHT22;27869;51.442;7.540;2022-11-15T12:53:48;14.40;99.90
42201;DHT22;27869;51.442;7.540;2022-11-15T12:56:22;14.40;99.90
42201;DHT22;27869;51.442;7.540;2022-11-15T12:58:52;14.40;99.90
42201;DHT22;27869;51.442;7.540;2022-11-15T13:04:33;14.40;99.90
42201;DHT22;27869;51.442;7.540;2022-11-15T13:07:02;14.40;99.90
42201;DHT22;27869;51.442;7.540;2022-11-15T13:09:55;14.40;99.90
42201;DHT22;27869;51.442;7.540;2022-11-15T13:12:56;14.40;99.90
42201;DHT22;27869;51.442;7.540;2022-11-15T13:15:55;14.40;99.90
42201;DHT22;27869;51.442;7.540;2022-11-15T13:18:35;14.50;99.90
42201;DHT22;27869;51.442;7.540;2022-11-15T13:21:16;14.50;99.90
42201;DHT22;27869;51.442;7.540;2022-11-15T13:23:58;14.50;99.90
42201;DHT22;27869;51.442;7.540;2022-11-15T13:26:25;14.60;99.90
42201;DHT22;27869;51.442;7.540;2022-11-15T13:28:52;14.60;99.90
42201;DHT22;27869;51.442;7.540;2022-11-15T13:31:35;14.60;99.90
42201;DHT22;27869;51.442;7.540;2022-11-15T13:34:22;14.60;99.90
42201;DHT22;27869;51.442;7.540;2022-11-15T13:36:51;14.60;99.90
42201;DHT22;27869;51.442;7.540;2022-11-15T13:39:27;14.70;99.90
42201;DHT22;27869;51.442;7.540;2022-11-15T13:41:54;14.70;99.90
42201;DHT22;27869;51.442;7.540;2022-11-15T13:44:22;14.70;99.90
42201;DHT22;27869;51.442;7.540;2022-11-15T13:47:00;14.70;99.90
42201;DHT22;27869;51.442;7.540;2022-11-15T13:49:29;14.60;99.90
42201;DHT22;27869;51.442;7.540;2022-11-15T13:52:00;14.60;99.90
42201;DHT22;27869;51.442;7.540;2022-11-15T13:54:29;14.60;99.90
42201;DHT22;27869;51.442;7.540;2022-11-15T13:56:59;14.60;99.90
42201;DHT22;27869;51.442;7.540;2022-11-15T13:59:30;14.50;99.90
42201;DHT22;27869;51.442;7.540;2022-11-15T14:02:02;14.50;99.90
42201;DHT22;27869;51.442;7.540;2022-11-15T14:04:30;14.50;99.90
42201;DHT22;27869;51.442;7.540;2022-11-15T14:07:01;14.50;99.90
42201;DHT22;27869;51.442;7.540;2022-11-15T14:09:35;14.40;99.90
42201;DHT22;27869;51.442;7.540;2022-11-15T14:14:45;14.40;99.90
42201;DHT22;27869;51.442;7.540;2022-11-15T14:17:20;14.40;99.90
42201;DHT22;27869;51.442;7.540;2022-11-15T14:19:49;14.30;99.90
42201;DHT22;27869;51.442;7.540;2022-11-15T14:22:20;14.30;99.90
42201;DHT22;27869;51.442;7.540;2022-11-15T14:25:15;14.30;99.90
42201;DHT22;27869;51.442;7.540;2022-11-15T14:27:44;14.30;99.90
42201;DHT22;27869;51.442;7.540;2022-11-15T14:30:15;14.30;99.90
42201;DHT22;27869;51.442;7.540;2022-11-15T14:32:45;14.20;99.90
42201;DHT22;27869;51.442;7.540;2022-11-15T14:35:15;14.20;99.90
42201;DHT22;27869;51.442;7.540;2022-11-15T14:37:44;14.20;99.90
42201;DHT22;27869;51.442;7.540;2022-11-15T14:40:14;14.20;99.90
42201;DHT22;27869;51.442;7.540;2022-11-15T14:42:41;14.20;99.90
42201;DHT22;27869;51.442;7.540;2022-11-15T14:45:12;14.20;99.90
42201;DHT22;27869;51.442;7.540;2022-11-15T14:47:40;14.20;99.90
42201;DHT22;27869;51.442;7.540;2022-11-15T14:50:11;14.20;99.90
42201;DHT22;27869;51.442;7.540;2022-11-15T14:52:39;14.20;99.90
42201;DHT22;27869;51.442;7.540;2022-11-15T14:55:16;14.10;99.90
42201;DHT22;27869;51.442;7.540;2022-11-15T14:57:43;14.10;99.90
42201;DHT22;27869;51.442;7.540;2022-11-15T15:00:12;14.10;99.90
42201;DHT22;27869;51.442;7.540;2022-11-15T15:02:39;14.10;99.90
42201;DHT22;27869;51.442;7.540;2022-11-15T15:05:15;14.10;99.90
42201;DHT22;27869;51.442;7.540;2022-11-15T15:07:42;14.10;99.90
42201;DHT22;27869;51.442;7.540;2022-11-15T15:10:10;14.10;99.90
42201;DHT22;27869;51.442;7.540;2022-11-15T15:12:37;14.10;99.90
42201;DHT22;27869;51.442;7.540;2022-11-15T15:15:05;14.00;99.90
42201;DHT22;27869;51.442;7.540;2022-11-15T15:17:33;14.00;99.90
42201;DHT22;27869;51.442;7.540;2022-11-15T15:20:00;13.90;99.90
42201;DHT22;27869;51.442;7.540;2022-11-15T15:22:28;13.90;99.90
42201;DHT22;27869;51.442;7.540;2022-11-15T15:24:56;13.90;99.90
42201;DHT22;27869;51.442;7.540;2022-11-15T15:27:24;13.90;99.90
42201;DHT22;27869;51.442;7.540;2022-11-15T15:29:51;13.90;99.90
42201;DHT22;27869;51.442;7.540;2022-11-15T15:32:18;13.90;99.90
42201;DHT22;27869;51.442;7.540;2022-11-15T15:34:45;13.80;99.90
42201;DHT22;27869;51.442;7.540;2022-11-15T15:37:22;13.80;99.90
42201;DHT22;27869;51.442;7.540;2022-11-15T15:39:49;13.80;99.90
42201;DHT22;27869;51.442;7.540;2022-11-15T15:42:17;13.80;99.90
42201;DHT22;27869;51.442;7.540;2022-11-15T15:44:45;13.70;99.90
42201;DHT22;27869;51.442;7.540;2022-11-15T15:47:14;13.70;99.90
42201;DHT22;27869;51.442;7.540;2022-11-15T15:49:42;13.70;99.90
42201;DHT22;27869;51.442;7.540;2022-11-15T15:52:09;13.70;99.90
42201;DHT22;27869;51.442;7.540;2022-11-15T15:54:37;13.70;99.90
42201;DHT22;27869;51.442;7.540;2022-11-15T15:57:04;13.60;99.90
42201;DHT22;27869;51.442;7.540;2022-11-15T15:59:31;13.60;99.90
42201;DHT22;27869;51.442;7.540;2022-11-15T16:02:00;13.60;99.90
42201;DHT22;27869;51.442;7.540;2022-11-15T16:04:27;13.60;99.90
42201;DHT22;27869;51.442;7.540;2022-11-15T16:06:58;13.60;99.90